Berkey, Ohio
Current Conditions -  °F | °C
As of 4:52 AM on Sunday 25 Jan 2015 (Local Time) from KTOL Reporting Station
Haze Haze  
Wind Chill: 34°   Ceiling: 2500
Heat Index: 34°   Visibility: 6mi
Dew Point: 32°   Wind: 0mph
Humidity: 92%   Direction: NA
Pressure: 29.71"   Gusts: NA
Location:  41.72°N, 83.84°W
Report Text: KTOL 250952Z 00000KT 6SM BR BKN025 OVC030 01/00 A2971 RMK AO2 SLP066 T00110000
Loading
Personal Weather Stations






























Interactive Weather Map New forecast layout! Learn more

10-Day Weather Forecast

Advertisements
Track Severe Weather on mobile